WEATHER DATA

TODAY
Time Temp. Dewp. Hum. Bar.
00:03 13.6 7.6 67 1014.9
00:13 13.5 7.5 67 1014.9
00:23 13.4 7.2 66 1014.7
00:33 13.2 7 66 1014.7
00:43 13.1 6.9 66 1014.5
00:53 12.9 6.7 66 1014.5
01:03 12.8 6.8 67 1014.4
01:13 12.6 6.6 67 1014.5
01:23 12.1 6.4 68 1014.4
01:33 11.6 6.1 69 1014.3
01:43 11.1 5.8 70 1014.2
01:53 10.6 5.6 71 1014
02:03 10.1 5.3 72 1013.6
02:14 9.8 5.2 73 1013.7
02:23 9.8 5.4 74 1013.6
02:33 10.2 5.6 73 1013.6
02:43 10.3 5.7 73 1013.3
02:54 10.3 5.7 73 1013.2
03:03 10.3 5.5 72 1013
03:13 10.3 5.5 72 1012.9
03:24 10.4 5.6 72 1012.7
03:34 10.4 5.6 72 1012.6
03:43 10.3 5.5 72 1012.6
03:54 9.9 5.1 72 1012.5
04:04 9.5 4.9 73 1012.3
04:14 9.1 4.7 74 1012.2
04:23 8.7 4.5 75 1012.2
04:34 8.4 4.4 76 1012
04:44 8.1 4.1 76 1011.9
04:54 7.8 4 77 1012
05:04 7.6 4 78 1011.9
05:14 7.5 3.9 78 1011.8
05:24 7.5 4.1 79 1011.4
05:34 7.5 4.1 79 1011.5
05:45 7.6 4.2 79 1011.6
05:55 7.6 4.2 79 1011.5
06:05 7.6 4.2 79 1011.4
06:15 7.5 4.1 79 1011.4
06:25 7.5 4.1 79 1011.4
06:35 7.6 4.2 79 1011.4
06:45 7.6 4.2 79 1011.4
06:55 7.6 4.2 79 1011.4
07:06 7.6 4.2 79 1011.3
07:16 7.5 4.1 79 1011.3
07:25 7.6 4.4 80 1011.2
07:36 7.8 4.6 80 1011
07:46 8.3 5.1 80 1011.1
07:56 9 5.6 79 1011.1
08:06 9.7 5.9 77 1010.9
08:16 10 6 76 1011
08:26 10.6 6.6 76 1011
08:36 11.2 6.9 75 1010.9
08:47 11.9 7.4 74 1010.8
08:57 12.8 8.1 73 1010.8
09:06 13.5 8.1 70 1010.5
09:16 14.2 8.4 68 1010.7
09:27 14.9 8.4 65 1010.6
09:37 15.3 8.8 65 1010.4
09:46 15.7 8.9 64 1010.3
09:57 16 9 63 1010.2
10:07 16.3 9 62 1010.3

DAY STATISTIC

2019-09-21
TEMPERATURE
AVERAGE
10.4
HIGH
16.3
10:07
LOW
7.5
05:14
PRESSURE
AVERAGE
1012.3
HIGH
1014.9
00:03
LOW
1010.2
09:57
DEWPOINT
AVERAGE
5.8
HIGH
9.0
09:57
LOW
3.9
05:14
HUMIDITY
AVERAGE
73
HIGH
80
07:25
LOW
62
10:07
TEMPERATURE (°C)
LOW
7.5
HIGH
16.3
AVERAGE
10.4
PRESSURE (hpa)
LOW
1010.2
HIGH
1014.9
AVERAGE
1012.3
DEVICE